sensor_id;sensor_type;location;lat;lon;timestamp;P1;durP1;ratioP1;P2;durP2;ratioP2
253;SDS011;590;48.772;8.846;2023-02-28T00:00:14;1.80;;;1.70;;
253;SDS011;590;48.772;8.846;2023-02-28T00:02:43;1.83;;;1.73;;
253;SDS011;590;48.772;8.846;2023-02-28T00:05:13;2.23;;;2.03;;
253;SDS011;590;48.772;8.846;2023-02-28T00:07:42;1.70;;;1.60;;
253;SDS011;590;48.772;8.846;2023-02-28T00:10:12;1.97;;;1.87;;
253;SDS011;590;48.772;8.846;2023-02-28T00:12:46;1.70;;;1.70;;
253;SDS011;590;48.772;8.846;2023-02-28T00:15:15;1.87;;;1.80;;
253;SDS011;590;48.772;8.846;2023-02-28T00:17:43;1.80;;;1.60;;
253;SDS011;590;48.772;8.846;2023-02-28T00:20:12;1.77;;;1.67;;
253;SDS011;590;48.772;8.846;2023-02-28T00:22:41;2.13;;;1.67;;
253;SDS011;590;48.772;8.846;2023-02-28T00:25:13;1.80;;;1.70;;
253;SDS011;590;48.772;8.846;2023-02-28T00:27:43;1.87;;;1.77;;
253;SDS011;590;48.772;8.846;2023-02-28T00:30:12;1.93;;;1.83;;
253;SDS011;590;48.772;8.846;2023-02-28T00:32:43;1.90;;;1.80;;
253;SDS011;590;48.772;8.846;2023-02-28T00:35:11;1.90;;;1.80;;
253;SDS011;590;48.772;8.846;2023-02-28T00:37:39;1.67;;;1.63;;
253;SDS011;590;48.772;8.846;2023-02-28T00:40:08;2.13;;;1.97;;
253;SDS011;590;48.772;8.846;2023-02-28T00:42:39;1.90;;;1.80;;
253;SDS011;590;48.772;8.846;2023-02-28T00:45:08;1.80;;;1.70;;
253;SDS011;590;48.772;8.846;2023-02-28T00:47:36;1.57;;;1.53;;
253;SDS011;590;48.772;8.846;2023-02-28T00:50:05;1.70;;;1.60;;
253;SDS011;590;48.772;8.846;2023-02-28T00:52:34;1.90;;;1.80;;
253;SDS011;590;48.772;8.846;2023-02-28T00:55:02;2.17;;;2.00;;
253;SDS011;590;48.772;8.846;2023-02-28T00:57:32;2.20;;;2.00;;
253;SDS011;590;48.772;8.846;2023-02-28T01:00:02;1.70;;;1.60;;
253;SDS011;590;48.772;8.846;2023-02-28T01:02:31;2.00;;;1.90;;
253;SDS011;590;48.772;8.846;2023-02-28T01:04:59;1.73;;;1.63;;
253;SDS011;590;48.772;8.846;2023-02-28T01:07:27;1.87;;;1.77;;
253;SDS011;590;48.772;8.846;2023-02-28T01:09:55;1.60;;;1.53;;
253;SDS011;590;48.772;8.846;2023-02-28T01:12:23;1.87;;;1.77;;
253;SDS011;590;48.772;8.846;2023-02-28T01:14:51;1.95;;;1.80;;
253;SDS011;590;48.772;8.846;2023-02-28T01:17:20;1.30;;;1.30;;
253;SDS011;590;48.772;8.846;2023-02-28T01:19:48;2.30;;;2.10;;
253;SDS011;590;48.772;8.846;2023-02-28T01:22:16;1.80;;;1.70;;
253;SDS011;590;48.772;8.846;2023-02-28T01:24:44;1.77;;;1.60;;
253;SDS011;590;48.772;8.846;2023-02-28T01:27:13;1.77;;;1.67;;
253;SDS011;590;48.772;8.846;2023-02-28T01:29:41;1.93;;;1.80;;
253;SDS011;590;48.772;8.846;2023-02-28T01:32:09;2.00;;;1.90;;
253;SDS011;590;48.772;8.846;2023-02-28T01:34:39;2.60;;;2.40;;
253;SDS011;590;48.772;8.846;2023-02-28T01:37:07;1.97;;;1.87;;
253;SDS011;590;48.772;8.846;2023-02-28T01:39:35;1.63;;;1.53;;
253;SDS011;590;48.772;8.846;2023-02-28T01:42:03;2.20;;;2.00;;
253;SDS011;590;48.772;8.846;2023-02-28T01:47:24;2.50;;;1.83;;
253;SDS011;590;48.772;8.846;2023-02-28T01:49:56;1.40;;;1.30;;
253;SDS011;590;48.772;8.846;2023-02-28T01:52:24;1.73;;;1.63;;
253;SDS011;590;48.772;8.846;2023-02-28T01:54:54;2.83;;;2.13;;
253;SDS011;590;48.772;8.846;2023-02-28T01:57:24;1.70;;;1.60;;
253;SDS011;590;48.772;8.846;2023-02-28T01:59:57;1.80;;;1.67;;
253;SDS011;590;48.772;8.846;2023-02-28T02:02:31;1.83;;;1.80;;
253;SDS011;590;48.772;8.846;2023-02-28T02:05:03;2.13;;;1.97;;
253;SDS011;590;48.772;8.846;2023-02-28T02:07:33;2.33;;;1.27;;
253;SDS011;590;48.772;8.846;2023-02-28T02:10:04;1.57;;;1.50;;
253;SDS011;590;48.772;8.846;2023-02-28T02:12:42;1.93;;;1.83;;
253;SDS011;590;48.772;8.846;2023-02-28T02:15:24;1.70;;;1.67;;
253;SDS011;590;48.772;8.846;2023-02-28T02:17:57;2.30;;;2.10;;
253;SDS011;590;48.772;8.846;2023-02-28T02:20:41;1.77;;;1.70;;
253;SDS011;590;48.772;8.846;2023-02-28T02:26:39;2.23;;;1.83;;
253;SDS011;590;48.772;8.846;2023-02-28T02:32:36;1.73;;;1.63;;
253;SDS011;590;48.772;8.846;2023-02-28T02:39:21;2.40;;;2.00;;
253;SDS011;590;48.772;8.846;2023-02-28T02:41:58;3.23;;;2.17;;
253;SDS011;590;48.772;8.846;2023-02-28T02:44:30;1.87;;;1.77;;
253;SDS011;590;48.772;8.846;2023-02-28T02:47:04;2.00;;;1.90;;
253;SDS011;590;48.772;8.846;2023-02-28T02:49:37;1.83;;;1.73;;
253;SDS011;590;48.772;8.846;2023-02-28T02:52:09;2.27;;;2.07;;
253;SDS011;590;48.772;8.846;2023-02-28T02:54:43;2.30;;;2.10;;
253;SDS011;590;48.772;8.846;2023-02-28T02:57:15;2.53;;;2.33;;
253;SDS011;590;48.772;8.846;2023-02-28T02:59:52;2.00;;;1.90;;
253;SDS011;590;48.772;8.846;2023-02-28T03:02:22;1.80;;;1.80;;
253;SDS011;590;48.772;8.846;2023-02-28T03:04:54;2.27;;;2.07;;
253;SDS011;590;48.772;8.846;2023-02-28T03:07:27;2.20;;;2.00;;
253;SDS011;590;48.772;8.846;2023-02-28T03:09:56;2.00;;;1.90;;
253;SDS011;590;48.772;8.846;2023-02-28T03:12:27;1.70;;;1.60;;
253;SDS011;590;48.772;8.846;2023-02-28T03:15:08;1.80;;;1.70;;
253;SDS011;590;48.772;8.846;2023-02-28T03:17:49;2.30;;;2.10;;
253;SDS011;590;48.772;8.846;2023-02-28T03:20:27;1.67;;;1.57;;
253;SDS011;590;48.772;8.846;2023-02-28T03:23:10;1.90;;;1.80;;
253;SDS011;590;48.772;8.846;2023-02-28T03:25:50;2.70;;;2.40;;
253;SDS011;590;48.772;8.846;2023-02-28T03:28:26;2.00;;;1.90;;
253;SDS011;590;48.772;8.846;2023-02-28T03:31:00;1.77;;;1.67;;
253;SDS011;590;48.772;8.846;2023-02-28T03:33:36;1.97;;;1.87;;
253;SDS011;590;48.772;8.846;2023-02-28T03:36:12;1.87;;;1.77;;
253;SDS011;590;48.772;8.846;2023-02-28T03:38:46;2.17;;;2.00;;
253;SDS011;590;48.772;8.846;2023-02-28T03:41:21;1.80;;;1.70;;
253;SDS011;590;48.772;8.846;2023-02-28T03:43:53;1.93;;;1.83;;
253;SDS011;590;48.772;8.846;2023-02-28T03:46:24;1.90;;;1.80;;
253;SDS011;590;48.772;8.846;2023-02-28T03:49:00;2.30;;;2.10;;
253;SDS011;590;48.772;8.846;2023-02-28T03:51:32;1.83;;;1.80;;
253;SDS011;590;48.772;8.846;2023-02-28T03:54:02;2.33;;;2.13;;
253;SDS011;590;48.772;8.846;2023-02-28T03:56:37;1.70;;;1.60;;
253;SDS011;590;48.772;8.846;2023-02-28T03:59:10;1.90;;;1.80;;
253;SDS011;590;48.772;8.846;2023-02-28T04:01:42;1.87;;;1.77;;
253;SDS011;590;48.772;8.846;2023-02-28T04:04:12;1.87;;;1.77;;
253;SDS011;590;48.772;8.846;2023-02-28T04:06:41;2.50;;;1.83;;
253;SDS011;590;48.772;8.846;2023-02-28T04:09:11;2.13;;;2.00;;
253;SDS011;590;48.772;8.846;2023-02-28T04:11:44;1.97;;;1.87;;
253;SDS011;590;48.772;8.846;2023-02-28T04:14:15;1.93;;;1.83;;
253;SDS011;590;48.772;8.846;2023-02-28T04:16:43;2.00;;;1.90;;
253;SDS011;590;48.772;8.846;2023-02-28T04:19:12;2.40;;;2.20;;
253;SDS011;590;48.772;8.846;2023-02-28T04:21:42;2.20;;;1.70;;
253;SDS011;590;48.772;8.846;2023-02-28T04:24:12;2.20;;;2.00;;
253;SDS011;590;48.772;8.846;2023-02-28T04:26:44;1.80;;;1.70;;
253;SDS011;590;48.772;8.846;2023-02-28T04:29:14;2.23;;;2.03;;
253;SDS011;590;48.772;8.846;2023-02-28T04:31:50;1.60;;;1.50;;
253;SDS011;590;48.772;8.846;2023-02-28T04:34:19;2.20;;;2.00;;
253;SDS011;590;48.772;8.846;2023-02-28T04:36:48;1.67;;;1.63;;
253;SDS011;590;48.772;8.846;2023-02-28T04:39:36;2.43;;;2.00;;
253;SDS011;590;48.772;8.846;2023-02-28T04:42:06;2.60;;;2.40;;
253;SDS011;590;48.772;8.846;2023-02-28T04:44:34;2.27;;;2.07;;
253;SDS011;590;48.772;8.846;2023-02-28T04:47:02;2.20;;;2.00;;
253;SDS011;590;48.772;8.846;2023-02-28T04:49:31;1.93;;;1.83;;
253;SDS011;590;48.772;8.846;2023-02-28T04:51:59;2.20;;;2.00;;
253;SDS011;590;48.772;8.846;2023-02-28T04:54:27;2.00;;;1.90;;
253;SDS011;590;48.772;8.846;2023-02-28T04:56:56;2.00;;;1.90;;
253;SDS011;590;48.772;8.846;2023-02-28T04:59:25;1.53;;;1.50;;
253;SDS011;590;48.772;8.846;2023-02-28T05:01:53;2.47;;;2.27;;
253;SDS011;590;48.772;8.846;2023-02-28T05:04:21;2.30;;;2.10;;
253;SDS011;590;48.772;8.846;2023-02-28T05:06:49;2.20;;;2.00;;
253;SDS011;590;48.772;8.846;2023-02-28T05:09:17;1.93;;;1.87;;
253;SDS011;590;48.772;8.846;2023-02-28T05:11:45;1.77;;;1.67;;
253;SDS011;590;48.772;8.846;2023-02-28T05:14:13;1.87;;;1.77;;
253;SDS011;590;48.772;8.846;2023-02-28T05:16:43;2.30;;;2.10;;
253;SDS011;590;48.772;8.846;2023-02-28T05:19:11;1.80;;;1.73;;
253;SDS011;590;48.772;8.846;2023-02-28T05:21:39;1.90;;;1.80;;
253;SDS011;590;48.772;8.846;2023-02-28T05:24:10;2.30;;;2.10;;
253;SDS011;590;48.772;8.846;2023-02-28T05:26:40;1.63;;;1.57;;
253;SDS011;590;48.772;8.846;2023-02-28T05:29:09;1.70;;;1.60;;
253;SDS011;590;48.772;8.846;2023-02-28T05:31:37;2.40;;;2.20;;
253;SDS011;590;48.772;8.846;2023-02-28T05:34:07;2.43;;;2.10;;
253;SDS011;590;48.772;8.846;2023-02-28T05:36:37;2.20;;;1.83;;
253;SDS011;590;48.772;8.846;2023-02-28T05:39:06;1.73;;;1.70;;
253;SDS011;590;48.772;8.846;2023-02-28T05:41:39;2.20;;;2.00;;
253;SDS011;590;48.772;8.846;2023-02-28T05:44:08;1.80;;;1.27;;
253;SDS011;590;48.772;8.846;2023-02-28T05:46:36;1.90;;;1.80;;
253;SDS011;590;48.772;8.846;2023-02-28T05:49:04;2.47;;;2.30;;
253;SDS011;590;48.772;8.846;2023-02-28T05:51:34;2.03;;;1.90;;
253;SDS011;590;48.772;8.846;2023-02-28T05:54:06;2.27;;;2.00;;
253;SDS011;590;48.772;8.846;2023-02-28T05:56:34;2.53;;;2.33;;
253;SDS011;590;48.772;8.846;2023-02-28T05:59:05;1.70;;;1.60;;
253;SDS011;590;48.772;8.846;2023-02-28T06:01:34;2.20;;;2.00;;
253;SDS011;590;48.772;8.846;2023-02-28T06:04:04;2.90;;;2.70;;
253;SDS011;590;48.772;8.846;2023-02-28T06:06:35;2.33;;;2.13;;
253;SDS011;590;48.772;8.846;2023-02-28T06:09:05;1.90;;;1.80;;
253;SDS011;590;48.772;8.846;2023-02-28T06:11:33;2.13;;;1.97;;
253;SDS011;590;48.772;8.846;2023-02-28T06:14:02;2.90;;;2.00;;
253;SDS011;590;48.772;8.846;2023-02-28T06:16:31;1.90;;;1.80;;
253;SDS011;590;48.772;8.846;2023-02-28T06:19:01;2.27;;;2.07;;
253;SDS011;590;48.772;8.846;2023-02-28T06:21:30;2.53;;;2.33;;
253;SDS011;590;48.772;8.846;2023-02-28T06:24:00;2.77;;;2.57;;
253;SDS011;590;48.772;8.846;2023-02-28T06:26:28;2.50;;;2.30;;
253;SDS011;590;48.772;8.846;2023-02-28T06:28:56;2.80;;;2.60;;
253;SDS011;590;48.772;8.846;2023-02-28T06:31:25;2.70;;;2.00;;
253;SDS011;590;48.772;8.846;2023-02-28T06:38:03;2.60;;;2.40;;
253;SDS011;590;48.772;8.846;2023-02-28T06:40:32;2.43;;;2.23;;
253;SDS011;590;48.772;8.846;2023-02-28T06:43:02;2.47;;;2.27;;
253;SDS011;590;48.772;8.846;2023-02-28T06:45:30;2.33;;;2.13;;
253;SDS011;590;48.772;8.846;2023-02-28T06:47:58;2.60;;;2.40;;
253;SDS011;590;48.772;8.846;2023-02-28T06:50:26;2.67;;;2.47;;
253;SDS011;590;48.772;8.846;2023-02-28T06:52:55;3.17;;;2.97;;
253;SDS011;590;48.772;8.846;2023-02-28T06:55:23;2.43;;;2.23;;
253;SDS011;590;48.772;8.846;2023-02-28T06:57:54;3.10;;;2.90;;
253;SDS011;590;48.772;8.846;2023-02-28T07:00:22;3.10;;;2.90;;
253;SDS011;590;48.772;8.846;2023-02-28T07:02:51;2.50;;;2.30;;
253;SDS011;590;48.772;8.846;2023-02-28T07:05:20;2.37;;;2.17;;
253;SDS011;590;48.772;8.846;2023-02-28T07:07:48;2.40;;;2.20;;
253;SDS011;590;48.772;8.846;2023-02-28T07:10:28;3.13;;;2.77;;
253;SDS011;590;48.772;8.846;2023-02-28T07:12:57;2.70;;;2.50;;
253;SDS011;590;48.772;8.846;2023-02-28T07:15:26;3.10;;;2.70;;
253;SDS011;590;48.772;8.846;2023-02-28T07:17:55;2.60;;;2.40;;
253;SDS011;590;48.772;8.846;2023-02-28T07:20:23;2.60;;;2.40;;
253;SDS011;590;48.772;8.846;2023-02-28T07:22:52;2.83;;;2.63;;
253;SDS011;590;48.772;8.846;2023-02-28T07:25:22;2.70;;;2.50;;
253;SDS011;590;48.772;8.846;2023-02-28T07:27:54;3.00;;;2.67;;
253;SDS011;590;48.772;8.846;2023-02-28T07:30:24;2.37;;;2.17;;
253;SDS011;590;48.772;8.846;2023-02-28T07:32:53;2.73;;;2.60;;
253;SDS011;590;48.772;8.846;2023-02-28T07:35:22;2.40;;;2.20;;
253;SDS011;590;48.772;8.846;2023-02-28T07:37:51;2.30;;;2.10;;
253;SDS011;590;48.772;8.846;2023-02-28T07:40:20;4.30;;;2.87;;
253;SDS011;590;48.772;8.846;2023-02-28T07:42:48;2.83;;;2.63;;
253;SDS011;590;48.772;8.846;2023-02-28T07:45:16;3.20;;;3.00;;
253;SDS011;590;48.772;8.846;2023-02-28T07:47:45;2.70;;;2.40;;
253;SDS011;590;48.772;8.846;2023-02-28T07:52:43;2.70;;;2.50;;
253;SDS011;590;48.772;8.846;2023-02-28T07:55:11;2.50;;;2.30;;
253;SDS011;590;48.772;8.846;2023-02-28T07:57:40;3.10;;;2.97;;
253;SDS011;590;48.772;8.846;2023-02-28T08:00:09;2.57;;;2.37;;
253;SDS011;590;48.772;8.846;2023-02-28T08:02:39;2.73;;;2.53;;
253;SDS011;590;48.772;8.846;2023-02-28T08:05:09;3.33;;;3.13;;
253;SDS011;590;48.772;8.846;2023-02-28T08:07:37;3.07;;;2.87;;
253;SDS011;590;48.772;8.846;2023-02-28T08:10:06;2.80;;;2.60;;
253;SDS011;590;48.772;8.846;2023-02-28T08:12:36;2.97;;;2.77;;
253;SDS011;590;48.772;8.846;2023-02-28T08:15:08;3.07;;;2.93;;
253;SDS011;590;48.772;8.846;2023-02-28T08:17:36;2.63;;;2.43;;
253;SDS011;590;48.772;8.846;2023-02-28T08:20:06;2.70;;;2.50;;
253;SDS011;590;48.772;8.846;2023-02-28T08:22:37;2.80;;;2.60;;
253;SDS011;590;48.772;8.846;2023-02-28T08:25:07;3.10;;;2.90;;
253;SDS011;590;48.772;8.846;2023-02-28T08:27:44;2.67;;;2.47;;
253;SDS011;590;48.772;8.846;2023-02-28T08:30:18;3.00;;;2.80;;
253;SDS011;590;48.772;8.846;2023-02-28T08:32:47;2.80;;;2.60;;
253;SDS011;590;48.772;8.846;2023-02-28T08:35:16;2.70;;;2.50;;
253;SDS011;590;48.772;8.846;2023-02-28T08:37:44;2.80;;;2.60;;
253;SDS011;590;48.772;8.846;2023-02-28T08:40:15;3.03;;;2.83;;
253;SDS011;590;48.772;8.846;2023-02-28T08:42:44;3.60;;;2.93;;
253;SDS011;590;48.772;8.846;2023-02-28T08:45:12;3.10;;;2.90;;
253;SDS011;590;48.772;8.846;2023-02-28T08:47:41;2.70;;;2.50;;
253;SDS011;590;48.772;8.846;2023-02-28T08:50:09;2.90;;;2.70;;
253;SDS011;590;48.772;8.846;2023-02-28T08:52:40;3.07;;;2.87;;
253;SDS011;590;48.772;8.846;2023-02-28T08:55:09;3.07;;;2.60;;
253;SDS011;590;48.772;8.846;2023-02-28T08:57:44;3.10;;;2.90;;
253;SDS011;590;48.772;8.846;2023-02-28T09:00:25;2.73;;;2.53;;
253;SDS011;590;48.772;8.846;2023-02-28T09:02:53;3.20;;;3.00;;
253;SDS011;590;48.772;8.846;2023-02-28T09:05:21;3.00;;;2.80;;
253;SDS011;590;48.772;8.846;2023-02-28T09:07:50;2.83;;;2.63;;
253;SDS011;590;48.772;8.846;2023-02-28T09:10:18;2.90;;;2.70;;
253;SDS011;590;48.772;8.846;2023-02-28T09:12:46;2.80;;;2.60;;
253;SDS011;590;48.772;8.846;2023-02-28T09:15:17;3.37;;;3.17;;
253;SDS011;590;48.772;8.846;2023-02-28T09:18:52;2.80;;;2.60;;
253;SDS011;590;48.772;8.846;2023-02-28T09:21:46;3.03;;;2.83;;
253;SDS011;590;48.772;8.846;2023-02-28T09:24:52;3.10;;;2.90;;
253;SDS011;590;48.772;8.846;2023-02-28T09:27:21;2.97;;;2.77;;
253;SDS011;590;48.772;8.846;2023-02-28T09:29:49;3.17;;;2.97;;
253;SDS011;590;48.772;8.846;2023-02-28T09:32:17;3.47;;;3.27;;
253;SDS011;590;48.772;8.846;2023-02-28T09:34:45;3.00;;;2.80;;
253;SDS011;590;48.772;8.846;2023-02-28T09:37:13;3.27;;;3.10;;
253;SDS011;590;48.772;8.846;2023-02-28T09:39:41;3.63;;;3.43;;
253;SDS011;590;48.772;8.846;2023-02-28T09:42:13;3.00;;;2.80;;
253;SDS011;590;48.772;8.846;2023-02-28T09:44:48;3.17;;;2.97;;
253;SDS011;590;48.772;8.846;2023-02-28T09:47:18;3.60;;;3.40;;
253;SDS011;590;48.772;8.846;2023-02-28T09:49:55;3.40;;;3.20;;
253;SDS011;590;48.772;8.846;2023-02-28T09:52:26;4.13;;;3.90;;
253;SDS011;590;48.772;8.846;2023-02-28T09:54:59;3.40;;;3.20;;
253;SDS011;590;48.772;8.846;2023-02-28T09:57:32;3.37;;;3.17;;
253;SDS011;590;48.772;8.846;2023-02-28T10:00:10;3.30;;;3.10;;
253;SDS011;590;48.772;8.846;2023-02-28T10:03:00;3.10;;;2.90;;
253;SDS011;590;48.772;8.846;2023-02-28T10:05:50;3.83;;;3.63;;
253;SDS011;590;48.772;8.846;2023-02-28T10:08:22;4.30;;;4.00;;
253;SDS011;590;48.772;8.846;2023-02-28T10:10:54;2.77;;;2.57;;
253;SDS011;590;48.772;8.846;2023-02-28T10:13:26;3.23;;;3.07;;
253;SDS011;590;48.772;8.846;2023-02-28T10:16:01;3.70;;;3.50;;
253;SDS011;590;48.772;8.846;2023-02-28T10:18:37;3.07;;;2.87;;
253;SDS011;590;48.772;8.846;2023-02-28T10:21:14;3.27;;;3.07;;
253;SDS011;590;48.772;8.846;2023-02-28T10:23:46;3.43;;;3.23;;
253;SDS011;590;48.772;8.846;2023-02-28T10:26:16;3.70;;;3.50;;
253;SDS011;590;48.772;8.846;2023-02-28T10:28:46;3.47;;;3.27;;
253;SDS011;590;48.772;8.846;2023-02-28T10:31:14;3.33;;;3.13;;
253;SDS011;590;48.772;8.846;2023-02-28T10:33:45;3.17;;;2.97;;
253;SDS011;590;48.772;8.846;2023-02-28T10:36:15;3.10;;;2.90;;
253;SDS011;590;48.772;8.846;2023-02-28T10:38:46;3.40;;;3.20;;
253;SDS011;590;48.772;8.846;2023-02-28T10:41:15;3.67;;;3.47;;
253;SDS011;590;48.772;8.846;2023-02-28T10:43:56;3.10;;;2.90;;
253;SDS011;590;48.772;8.846;2023-02-28T10:46:41;3.97;;;3.77;;
253;SDS011;590;48.772;8.846;2023-02-28T10:49:13;3.80;;;3.60;;
253;SDS011;590;48.772;8.846;2023-02-28T10:51:48;4.07;;;3.87;;
253;SDS011;590;48.772;8.846;2023-02-28T10:54:20;3.60;;;3.40;;
253;SDS011;590;48.772;8.846;2023-02-28T10:57:17;4.10;;;3.90;;
253;SDS011;590;48.772;8.846;2023-02-28T11:07:30;3.73;;;3.53;;
253;SDS011;590;48.772;8.846;2023-02-28T11:10:17;3.80;;;3.60;;
253;SDS011;590;48.772;8.846;2023-02-28T11:12:48;3.93;;;3.73;;
253;SDS011;590;48.772;8.846;2023-02-28T11:15:21;3.73;;;3.53;;
253;SDS011;590;48.772;8.846;2023-02-28T11:17:54;3.60;;;3.43;;
253;SDS011;590;48.772;8.846;2023-02-28T11:20:26;4.27;;;4.00;;
253;SDS011;590;48.772;8.846;2023-02-28T11:23:00;4.40;;;4.10;;
253;SDS011;590;48.772;8.846;2023-02-28T11:25:31;4.27;;;4.00;;
253;SDS011;590;48.772;8.846;2023-02-28T11:28:02;4.17;;;3.93;;
253;SDS011;590;48.772;8.846;2023-02-28T11:30:34;3.80;;;3.60;;
253;SDS011;590;48.772;8.846;2023-02-28T11:33:23;3.70;;;3.50;;
253;SDS011;590;48.772;8.846;2023-02-28T11:35:55;4.63;;;4.33;;
253;SDS011;590;48.772;8.846;2023-02-28T11:38:29;4.00;;;3.80;;
253;SDS011;590;48.772;8.846;2023-02-28T11:41:09;3.60;;;3.40;;
253;SDS011;590;48.772;8.846;2023-02-28T11:43:53;4.10;;;3.90;;
253;SDS011;590;48.772;8.846;2023-02-28T11:46:47;4.40;;;4.10;;
253;SDS011;590;48.772;8.846;2023-02-28T11:50:16;4.77;;;4.47;;
253;SDS011;590;48.772;8.846;2023-02-28T11:53:55;4.30;;;4.03;;
253;SDS011;590;48.772;8.846;2023-02-28T11:57:03;4.17;;;3.93;;
253;SDS011;590;48.772;8.846;2023-02-28T12:01:58;4.30;;;4.00;;
253;SDS011;590;48.772;8.846;2023-02-28T12:17:03;4.27;;;4.00;;
253;SDS011;590;48.772;8.846;2023-02-28T12:28:25;4.10;;;3.90;;
253;SDS011;590;48.772;8.846;2023-02-28T12:36:11;4.43;;;4.13;;
253;SDS011;590;48.772;8.846;2023-02-28T13:00:04;4.43;;;4.13;;
253;SDS011;590;48.772;8.846;2023-02-28T13:15:28;4.17;;;3.93;;
253;SDS011;590;48.772;8.846;2023-02-28T13:27:20;4.23;;;4.00;;
253;SDS011;590;48.772;8.846;2023-02-28T13:29:53;4.57;;;4.27;;
253;SDS011;590;48.772;8.846;2023-02-28T13:32:31;4.57;;;4.27;;
253;SDS011;590;48.772;8.846;2023-02-28T13:43:12;4.63;;;4.33;;
253;SDS011;590;48.772;8.846;2023-02-28T13:46:35;4.40;;;4.10;;
253;SDS011;590;48.772;8.846;2023-02-28T13:49:26;4.23;;;3.97;;
253;SDS011;590;48.772;8.846;2023-02-28T13:52:02;3.70;;;3.50;;
253;SDS011;590;48.772;8.846;2023-02-28T13:54:43;4.43;;;4.13;;
253;SDS011;590;48.772;8.846;2023-02-28T13:57:23;3.83;;;3.63;;
253;SDS011;590;48.772;8.846;2023-02-28T14:00:02;3.90;;;3.70;;
253;SDS011;590;48.772;8.846;2023-02-28T14:05:39;3.73;;;3.53;;
253;SDS011;590;48.772;8.846;2023-02-28T14:08:08;4.77;;;4.47;;
253;SDS011;590;48.772;8.846;2023-02-28T14:10:44;4.70;;;4.40;;
253;SDS011;590;48.772;8.846;2023-02-28T14:16:11;4.10;;;3.90;;
253;SDS011;590;48.772;8.846;2023-02-28T14:18:42;4.60;;;4.30;;
253;SDS011;590;48.772;8.846;2023-02-28T14:21:21;3.70;;;3.50;;
253;SDS011;590;48.772;8.846;2023-02-28T14:26:56;3.83;;;3.63;;
253;SDS011;590;48.772;8.846;2023-02-28T14:30:00;4.03;;;3.83;;
253;SDS011;590;48.772;8.846;2023-02-28T14:32:41;3.90;;;3.70;;
253;SDS011;590;48.772;8.846;2023-02-28T14:35:20;3.97;;;3.77;;
253;SDS011;590;48.772;8.846;2023-02-28T14:38:13;3.70;;;3.50;;
253;SDS011;590;48.772;8.846;2023-02-28T14:40:51;3.90;;;3.70;;
253;SDS011;590;48.772;8.846;2023-02-28T14:43:22;3.40;;;3.20;;
253;SDS011;590;48.772;8.846;2023-02-28T14:53:14;3.80;;;3.60;;
253;SDS011;590;48.772;8.846;2023-02-28T14:55:45;4.10;;;3.90;;
253;SDS011;590;48.772;8.846;2023-02-28T14:58:20;4.37;;;4.07;;
253;SDS011;590;48.772;8.846;2023-02-28T15:00:54;3.40;;;3.20;;
253;SDS011;590;48.772;8.846;2023-02-28T15:04:00;4.07;;;3.87;;
253;SDS011;590;48.772;8.846;2023-02-28T15:17:27;3.93;;;3.73;;
253;SDS011;590;48.772;8.846;2023-02-28T15:19:55;3.50;;;3.30;;
253;SDS011;590;48.772;8.846;2023-02-28T15:22:26;3.90;;;3.70;;
253;SDS011;590;48.772;8.846;2023-02-28T15:24:56;3.80;;;3.60;;
253;SDS011;590;48.772;8.846;2023-02-28T15:27:26;4.03;;;3.83;;
253;SDS011;590;48.772;8.846;2023-02-28T15:29:59;4.00;;;3.80;;
253;SDS011;590;48.772;8.846;2023-02-28T15:32:34;4.00;;;3.80;;
253;SDS011;590;48.772;8.846;2023-02-28T15:35:19;3.80;;;3.60;;
253;SDS011;590;48.772;8.846;2023-02-28T15:37:57;3.83;;;3.63;;
253;SDS011;590;48.772;8.846;2023-02-28T15:40:33;3.73;;;3.53;;
253;SDS011;590;48.772;8.846;2023-02-28T15:43:05;3.87;;;3.67;;
253;SDS011;590;48.772;8.846;2023-02-28T15:45:36;4.17;;;3.93;;
253;SDS011;590;48.772;8.846;2023-02-28T15:48:27;3.63;;;3.43;;
253;SDS011;590;48.772;8.846;2023-02-28T15:51:28;3.40;;;3.20;;
253;SDS011;590;48.772;8.846;2023-02-28T15:53:59;4.33;;;4.03;;
253;SDS011;590;48.772;8.846;2023-02-28T15:56:31;3.50;;;3.30;;
253;SDS011;590;48.772;8.846;2023-02-28T15:59:01;4.03;;;3.83;;
253;SDS011;590;48.772;8.846;2023-02-28T16:01:32;4.10;;;3.90;;
253;SDS011;590;48.772;8.846;2023-02-28T16:04:03;4.00;;;3.80;;
253;SDS011;590;48.772;8.846;2023-02-28T16:06:38;3.57;;;3.37;;
253;SDS011;590;48.772;8.846;2023-02-28T16:09:09;3.70;;;3.50;;
253;SDS011;590;48.772;8.846;2023-02-28T16:11:40;3.87;;;3.67;;
253;SDS011;590;48.772;8.846;2023-02-28T16:14:11;3.83;;;3.63;;
253;SDS011;590;48.772;8.846;2023-02-28T16:16:43;3.73;;;3.53;;
253;SDS011;590;48.772;8.846;2023-02-28T16:19:13;3.60;;;3.40;;
253;SDS011;590;48.772;8.846;2023-02-28T16:21:42;3.93;;;3.73;;
253;SDS011;590;48.772;8.846;2023-02-28T16:24:10;4.10;;;3.90;;
253;SDS011;590;48.772;8.846;2023-02-28T16:26:39;3.70;;;3.50;;
253;SDS011;590;48.772;8.846;2023-02-28T16:29:08;4.13;;;3.90;;
253;SDS011;590;48.772;8.846;2023-02-28T16:31:40;4.00;;;3.80;;
253;SDS011;590;48.772;8.846;2023-02-28T16:34:08;3.53;;;3.33;;
253;SDS011;590;48.772;8.846;2023-02-28T16:36:36;4.10;;;3.90;;
253;SDS011;590;48.772;8.846;2023-02-28T16:39:06;3.47;;;3.27;;
253;SDS011;590;48.772;8.846;2023-02-28T16:41:33;4.13;;;3.90;;
253;SDS011;590;48.772;8.846;2023-02-28T16:44:02;3.60;;;3.40;;
253;SDS011;590;48.772;8.846;2023-02-28T16:46:36;4.87;;;4.57;;
253;SDS011;590;48.772;8.846;2023-02-28T16:49:04;3.90;;;3.70;;
253;SDS011;590;48.772;8.846;2023-02-28T16:51:36;4.23;;;3.97;;
253;SDS011;590;48.772;8.846;2023-02-28T16:54:05;4.07;;;3.87;;
253;SDS011;590;48.772;8.846;2023-02-28T16:56:33;4.00;;;3.80;;
253;SDS011;590;48.772;8.846;2023-02-28T16:59:02;4.27;;;4.00;;
253;SDS011;590;48.772;8.846;2023-02-28T17:01:30;3.63;;;3.43;;
253;SDS011;590;48.772;8.846;2023-02-28T17:03:58;3.07;;;2.87;;
253;SDS011;590;48.772;8.846;2023-02-28T17:06:27;3.80;;;3.60;;
253;SDS011;590;48.772;8.846;2023-02-28T17:08:57;4.80;;;4.50;;
253;SDS011;590;48.772;8.846;2023-02-28T17:11:27;4.10;;;3.90;;
253;SDS011;590;48.772;8.846;2023-02-28T17:13:56;4.30;;;4.00;;
253;SDS011;590;48.772;8.846;2023-02-28T17:16:25;3.70;;;3.50;;
253;SDS011;590;48.772;8.846;2023-02-28T17:18:56;4.50;;;4.20;;
253;SDS011;590;48.772;8.846;2023-02-28T17:21:25;3.90;;;3.70;;
253;SDS011;590;48.772;8.846;2023-02-28T17:23:53;3.90;;;3.70;;
253;SDS011;590;48.772;8.846;2023-02-28T17:26:22;3.90;;;3.70;;
253;SDS011;590;48.772;8.846;2023-02-28T17:28:52;4.03;;;3.83;;
253;SDS011;590;48.772;8.846;2023-02-28T17:31:22;4.60;;;4.30;;
253;SDS011;590;48.772;8.846;2023-02-28T17:33:50;4.57;;;4.27;;
253;SDS011;590;48.772;8.846;2023-02-28T17:36:20;4.90;;;4.60;;
253;SDS011;590;48.772;8.846;2023-02-28T17:38:50;4.53;;;4.23;;
253;SDS011;590;48.772;8.846;2023-02-28T17:41:19;4.57;;;4.27;;
253;SDS011;590;48.772;8.846;2023-02-28T17:43:48;5.20;;;4.90;;
253;SDS011;590;48.772;8.846;2023-02-28T17:46:19;4.27;;;4.00;;
253;SDS011;590;48.772;8.846;2023-02-28T17:48:49;3.40;;;3.20;;
253;SDS011;590;48.772;8.846;2023-02-28T17:51:20;4.70;;;4.40;;
253;SDS011;590;48.772;8.846;2023-02-28T17:53:51;4.33;;;4.07;;
253;SDS011;590;48.772;8.846;2023-02-28T17:56:20;4.93;;;4.63;;
253;SDS011;590;48.772;8.846;2023-02-28T17:58:51;4.40;;;4.10;;
253;SDS011;590;48.772;8.846;2023-02-28T18:01:27;4.60;;;4.30;;
253;SDS011;590;48.772;8.846;2023-02-28T18:03:55;4.40;;;4.10;;
253;SDS011;590;48.772;8.846;2023-02-28T18:06:24;4.87;;;4.57;;
253;SDS011;590;48.772;8.846;2023-02-28T18:08:54;5.40;;;5.10;;
253;SDS011;590;48.772;8.846;2023-02-28T18:11:23;4.87;;;4.57;;
253;SDS011;590;48.772;8.846;2023-02-28T18:13:52;5.53;;;5.23;;
253;SDS011;590;48.772;8.846;2023-02-28T18:16:22;4.27;;;4.00;;
253;SDS011;590;48.772;8.846;2023-02-28T18:18:51;5.77;;;5.47;;
253;SDS011;590;48.772;8.846;2023-02-28T18:21:19;5.10;;;4.80;;
253;SDS011;590;48.772;8.846;2023-02-28T18:23:47;4.30;;;4.00;;
253;SDS011;590;48.772;8.846;2023-02-28T18:26:16;4.70;;;4.20;;
253;SDS011;590;48.772;8.846;2023-02-28T18:28:46;3.50;;;3.30;;
253;SDS011;590;48.772;8.846;2023-02-28T18:31:15;4.80;;;4.50;;
253;SDS011;590;48.772;8.846;2023-02-28T18:33:46;5.00;;;4.70;;